sensor_id;sensor_type;location;lat;lon;timestamp;P1;durP1;ratioP1;P2;durP2;ratioP2
66371;SDS011;53168;51.146;17.120;2024-03-02T00:01:30;56.43;;;54.85;;
66371;SDS011;53168;51.146;17.120;2024-03-02T00:04:17;54.02;;;52.77;;
66371;SDS011;53168;51.146;17.120;2024-03-02T00:10:08;48.56;;;47.31;;
66371;SDS011;53168;51.146;17.120;2024-03-02T00:13:03;60.94;;;58.79;;
66371;SDS011;53168;51.146;17.120;2024-03-02T00:15:53;57.33;;;55.18;;
66371;SDS011;53168;51.146;17.120;2024-03-02T00:18:37;64.68;;;62.47;;
66371;SDS011;53168;51.146;17.120;2024-03-02T00:21:24;62.20;;;60.61;;
66371;SDS011;53168;51.146;17.120;2024-03-02T00:24:12;62.18;;;60.11;;
66371;SDS011;53168;51.146;17.120;2024-03-02T00:27:05;64.21;;;62.58;;
66371;SDS011;53168;51.146;17.120;2024-03-02T00:29:52;54.80;;;53.17;;
66371;SDS011;53168;51.146;17.120;2024-03-02T00:32:28;58.11;;;56.62;;
66371;SDS011;53168;51.146;17.120;2024-03-02T00:35:06;56.30;;;54.94;;
66371;SDS011;53168;51.146;17.120;2024-03-02T00:37:59;56.69;;;54.62;;
66371;SDS011;53168;51.146;17.120;2024-03-02T00:40:53;55.94;;;54.19;;
66371;SDS011;53168;51.146;17.120;2024-03-02T00:43:45;61.60;;;59.98;;
66371;SDS011;53168;51.146;17.120;2024-03-02T00:46:32;66.74;;;64.92;;
66371;SDS011;53168;51.146;17.120;2024-03-02T00:49:20;67.17;;;65.09;;
66371;SDS011;53168;51.146;17.120;2024-03-02T00:52:01;65.75;;;64.15;;
66371;SDS011;53168;51.146;17.120;2024-03-02T00:54:39;65.65;;;63.09;;
66371;SDS011;53168;51.146;17.120;2024-03-02T00:57:15;65.20;;;62.56;;
66371;SDS011;53168;51.146;17.120;2024-03-02T00:59:59;63.92;;;62.12;;
66371;SDS011;53168;51.146;17.120;2024-03-02T01:02:44;60.14;;;58.58;;
66371;SDS011;53168;51.146;17.120;2024-03-02T01:05:22;54.23;;;52.61;;
66371;SDS011;53168;51.146;17.120;2024-03-02T01:08:10;57.10;;;55.08;;
66371;SDS011;53168;51.146;17.120;2024-03-02T01:10:47;55.94;;;53.95;;
66371;SDS011;53168;51.146;17.120;2024-03-02T01:13:23;52.75;;;51.32;;
66371;SDS011;53168;51.146;17.120;2024-03-02T01:16:01;55.68;;;54.06;;
66371;SDS011;53168;51.146;17.120;2024-03-02T01:18:38;57.42;;;55.35;;
66371;SDS011;53168;51.146;17.120;2024-03-02T01:21:15;62.49;;;60.47;;
66371;SDS011;53168;51.146;17.120;2024-03-02T01:23:54;70.21;;;67.65;;
66371;SDS011;53168;51.146;17.120;2024-03-02T01:26:33;72.54;;;69.48;;
66371;SDS011;53168;51.146;17.120;2024-03-02T01:29:09;66.36;;;63.07;;
66371;SDS011;53168;51.146;17.120;2024-03-02T01:31:47;69.34;;;66.87;;
66371;SDS011;53168;51.146;17.120;2024-03-02T01:34:24;69.51;;;67.02;;
66371;SDS011;53168;51.146;17.120;2024-03-02T01:37:04;67.69;;;64.81;;
66371;SDS011;53168;51.146;17.120;2024-03-02T01:39:45;61.29;;;58.16;;
66371;SDS011;53168;51.146;17.120;2024-03-02T01:42:22;56.55;;;54.13;;
66371;SDS011;53168;51.146;17.120;2024-03-02T01:44:57;60.77;;;58.44;;
66371;SDS011;53168;51.146;17.120;2024-03-02T01:47:35;56.67;;;54.48;;
66371;SDS011;53168;51.146;17.120;2024-03-02T01:50:11;52.46;;;50.99;;
66371;SDS011;53168;51.146;17.120;2024-03-02T01:52:47;57.15;;;55.48;;
66371;SDS011;53168;51.146;17.120;2024-03-02T01:55:24;61.04;;;58.12;;
66371;SDS011;53168;51.146;17.120;2024-03-02T01:58:01;60.36;;;58.22;;
66371;SDS011;53168;51.146;17.120;2024-03-02T02:00:39;70.18;;;67.27;;
66371;SDS011;53168;51.146;17.120;2024-03-02T02:03:24;55.25;;;53.32;;
66371;SDS011;53168;51.146;17.120;2024-03-02T02:06:01;57.67;;;54.98;;
66371;SDS011;53168;51.146;17.120;2024-03-02T02:08:38;60.11;;;57.29;;
66371;SDS011;53168;51.146;17.120;2024-03-02T02:11:15;53.36;;;51.65;;
66371;SDS011;53168;51.146;17.120;2024-03-02T02:13:53;58.86;;;56.24;;
66371;SDS011;53168;51.146;17.120;2024-03-02T02:16:29;51.20;;;49.18;;
66371;SDS011;53168;51.146;17.120;2024-03-02T02:19:05;60.75;;;58.15;;
66371;SDS011;53168;51.146;17.120;2024-03-02T02:23:05;57.57;;;54.85;;
66371;SDS011;53168;51.146;17.120;2024-03-02T02:25:41;61.70;;;58.69;;
66371;SDS011;53168;51.146;17.120;2024-03-02T02:28:16;65.71;;;63.45;;
66371;SDS011;53168;51.146;17.120;2024-03-02T02:30:56;62.79;;;59.94;;
66371;SDS011;53168;51.146;17.120;2024-03-02T02:33:34;67.12;;;64.58;;
66371;SDS011;53168;51.146;17.120;2024-03-02T02:36:12;67.88;;;65.61;;
66371;SDS011;53168;51.146;17.120;2024-03-02T02:38:47;63.28;;;60.30;;
66371;SDS011;53168;51.146;17.120;2024-03-02T02:41:26;65.45;;;62.57;;
66371;SDS011;53168;51.146;17.120;2024-03-02T02:44:01;67.60;;;64.29;;
66371;SDS011;53168;51.146;17.120;2024-03-02T02:46:40;71.64;;;68.53;;
66371;SDS011;53168;51.146;17.120;2024-03-02T02:49:17;64.54;;;61.85;;
66371;SDS011;53168;51.146;17.120;2024-03-02T02:52:02;57.43;;;55.29;;
66371;SDS011;53168;51.146;17.120;2024-03-02T02:54:39;63.81;;;60.41;;
66371;SDS011;53168;51.146;17.120;2024-03-02T02:57:18;58.07;;;55.27;;
66371;SDS011;53168;51.146;17.120;2024-03-02T03:02:54;62.07;;;59.03;;
66371;SDS011;53168;51.146;17.120;2024-03-02T03:05:31;65.78;;;63.38;;
66371;SDS011;53168;51.146;17.120;2024-03-02T03:08:08;64.55;;;62.02;;
66371;SDS011;53168;51.146;17.120;2024-03-02T03:10:46;67.58;;;64.96;;
66371;SDS011;53168;51.146;17.120;2024-03-02T03:13:22;57.75;;;55.72;;
66371;SDS011;53168;51.146;17.120;2024-03-02T03:15:59;64.17;;;61.29;;
66371;SDS011;53168;51.146;17.120;2024-03-02T03:18:38;67.98;;;64.99;;
66371;SDS011;53168;51.146;17.120;2024-03-02T03:21:15;65.79;;;62.59;;
66371;SDS011;53168;51.146;17.120;2024-03-02T03:24:56;53.61;;;52.06;;
66371;SDS011;53168;51.146;17.120;2024-03-02T03:27:34;58.80;;;56.32;;
66371;SDS011;53168;51.146;17.120;2024-03-02T03:30:25;54.98;;;52.96;;
66371;SDS011;53168;51.146;17.120;2024-03-02T03:33:05;60.89;;;58.54;;
66371;SDS011;53168;51.146;17.120;2024-03-02T03:35:41;65.34;;;63.08;;
66371;SDS011;53168;51.146;17.120;2024-03-02T03:38:16;66.89;;;64.58;;
66371;SDS011;53168;51.146;17.120;2024-03-02T03:40:52;54.81;;;52.83;;
66371;SDS011;53168;51.146;17.120;2024-03-02T03:43:30;53.50;;;51.57;;
66371;SDS011;53168;51.146;17.120;2024-03-02T03:46:05;57.35;;;55.63;;
66371;SDS011;53168;51.146;17.120;2024-03-02T03:48:42;55.82;;;53.61;;
66371;SDS011;53168;51.146;17.120;2024-03-02T03:51:18;64.61;;;61.41;;
66371;SDS011;53168;51.146;17.120;2024-03-02T03:53:57;66.55;;;63.50;;
66371;SDS011;53168;51.146;17.120;2024-03-02T03:56:32;63.84;;;61.12;;
66371;SDS011;53168;51.146;17.120;2024-03-02T03:59:08;64.58;;;62.34;;
66371;SDS011;53168;51.146;17.120;2024-03-02T04:01:44;63.56;;;61.25;;
66371;SDS011;53168;51.146;17.120;2024-03-02T04:04:19;63.59;;;61.12;;
66371;SDS011;53168;51.146;17.120;2024-03-02T04:07:04;63.60;;;61.39;;
66371;SDS011;53168;51.146;17.120;2024-03-02T04:09:39;62.77;;;60.56;;
66371;SDS011;53168;51.146;17.120;2024-03-02T04:27:14;57.37;;;55.34;;
66371;SDS011;53168;51.146;17.120;2024-03-02T04:29:52;55.50;;;53.27;;
66371;SDS011;53168;51.146;17.120;2024-03-02T04:32:32;48.19;;;47.03;;
66371;SDS011;53168;51.146;17.120;2024-03-02T04:35:08;54.06;;;52.33;;
66371;SDS011;53168;51.146;17.120;2024-03-02T04:37:43;49.86;;;48.00;;
66371;SDS011;53168;51.146;17.120;2024-03-02T04:40:18;50.64;;;48.83;;
66371;SDS011;53168;51.146;17.120;2024-03-02T04:42:55;48.96;;;47.55;;
66371;SDS011;53168;51.146;17.120;2024-03-02T04:45:33;48.99;;;47.40;;
66371;SDS011;53168;51.146;17.120;2024-03-02T04:48:10;50.25;;;48.56;;
66371;SDS011;53168;51.146;17.120;2024-03-02T04:50:46;50.39;;;48.55;;
66371;SDS011;53168;51.146;17.120;2024-03-02T04:53:21;54.35;;;52.67;;
66371;SDS011;53168;51.146;17.120;2024-03-02T04:55:56;55.35;;;52.99;;
66371;SDS011;53168;51.146;17.120;2024-03-02T04:58:57;50.92;;;49.50;;
66371;SDS011;53168;51.146;17.120;2024-03-02T05:01:33;45.73;;;44.02;;
66371;SDS011;53168;51.146;17.120;2024-03-02T05:04:08;47.89;;;46.67;;
66371;SDS011;53168;51.146;17.120;2024-03-02T05:06:44;48.61;;;47.71;;
66371;SDS011;53168;51.146;17.120;2024-03-02T05:09:23;49.61;;;47.86;;
66371;SDS011;53168;51.146;17.120;2024-03-02T05:12:00;50.96;;;49.09;;
66371;SDS011;53168;51.146;17.120;2024-03-02T05:15:02;53.00;;;51.41;;
66371;SDS011;53168;51.146;17.120;2024-03-02T05:17:40;60.15;;;58.02;;
66371;SDS011;53168;51.146;17.120;2024-03-02T05:20:19;56.87;;;54.71;;
66371;SDS011;53168;51.146;17.120;2024-03-02T05:22:57;52.70;;;51.41;;
66371;SDS011;53168;51.146;17.120;2024-03-02T05:25:37;48.17;;;46.86;;
66371;SDS011;53168;51.146;17.120;2024-03-02T05:28:15;57.82;;;55.81;;
66371;SDS011;53168;51.146;17.120;2024-03-02T05:30:51;57.73;;;55.70;;
66371;SDS011;53168;51.146;17.120;2024-03-02T05:33:28;56.46;;;54.75;;
66371;SDS011;53168;51.146;17.120;2024-03-02T05:36:08;58.59;;;56.83;;
66371;SDS011;53168;51.146;17.120;2024-03-02T05:38:44;52.95;;;51.55;;
66371;SDS011;53168;51.146;17.120;2024-03-02T05:41:19;53.14;;;52.08;;
66371;SDS011;53168;51.146;17.120;2024-03-02T05:43:55;58.15;;;56.55;;
66371;SDS011;53168;51.146;17.120;2024-03-02T05:46:35;58.69;;;56.71;;
66371;SDS011;53168;51.146;17.120;2024-03-02T05:49:10;54.72;;;52.48;;
66371;SDS011;53168;51.146;17.120;2024-03-02T05:51:48;51.16;;;49.77;;
66371;SDS011;53168;51.146;17.120;2024-03-02T05:54:28;53.16;;;51.53;;
66371;SDS011;53168;51.146;17.120;2024-03-02T05:57:10;64.02;;;61.59;;
66371;SDS011;53168;51.146;17.120;2024-03-02T06:00:07;62.50;;;59.45;;
66371;SDS011;53168;51.146;17.120;2024-03-02T06:02:48;62.09;;;59.85;;
66371;SDS011;53168;51.146;17.120;2024-03-02T06:05:25;62.16;;;60.51;;
66371;SDS011;53168;51.146;17.120;2024-03-02T06:08:06;64.21;;;62.48;;
66371;SDS011;53168;51.146;17.120;2024-03-02T06:10:43;63.12;;;61.88;;
66371;SDS011;53168;51.146;17.120;2024-03-02T06:13:22;59.39;;;56.90;;
66371;SDS011;53168;51.146;17.120;2024-03-02T06:15:58;56.30;;;54.56;;
66371;SDS011;53168;51.146;17.120;2024-03-02T06:18:34;62.45;;;60.34;;
66371;SDS011;53168;51.146;17.120;2024-03-02T06:21:11;61.62;;;60.05;;
66371;SDS011;53168;51.146;17.120;2024-03-02T06:23:46;63.06;;;60.91;;
66371;SDS011;53168;51.146;17.120;2024-03-02T06:26:23;64.40;;;61.57;;
66371;SDS011;53168;51.146;17.120;2024-03-02T06:28:59;65.05;;;62.54;;
66371;SDS011;53168;51.146;17.120;2024-03-02T06:31:38;57.38;;;55.75;;
66371;SDS011;53168;51.146;17.120;2024-03-02T06:34:15;53.92;;;51.97;;
66371;SDS011;53168;51.146;17.120;2024-03-02T06:36:50;46.88;;;45.22;;
66371;SDS011;53168;51.146;17.120;2024-03-02T06:39:26;47.17;;;45.67;;
66371;SDS011;53168;51.146;17.120;2024-03-02T06:42:04;55.82;;;53.64;;
66371;SDS011;53168;51.146;17.120;2024-03-02T06:44:40;55.87;;;53.87;;
66371;SDS011;53168;51.146;17.120;2024-03-02T06:47:26;60.39;;;57.97;;
66371;SDS011;53168;51.146;17.120;2024-03-02T06:50:07;55.07;;;53.60;;
66371;SDS011;53168;51.146;17.120;2024-03-02T06:52:42;54.24;;;52.59;;
66371;SDS011;53168;51.146;17.120;2024-03-02T06:55:17;54.95;;;53.19;;
66371;SDS011;53168;51.146;17.120;2024-03-02T06:57:53;61.95;;;60.02;;
66371;SDS011;53168;51.146;17.120;2024-03-02T07:00:28;65.09;;;62.94;;
66371;SDS011;53168;51.146;17.120;2024-03-02T07:03:03;62.21;;;60.32;;
66371;SDS011;53168;51.146;17.120;2024-03-02T07:05:39;62.72;;;60.67;;
66371;SDS011;53168;51.146;17.120;2024-03-02T07:08:16;64.66;;;62.94;;
66371;SDS011;53168;51.146;17.120;2024-03-02T07:11:03;62.51;;;61.08;;
66371;SDS011;53168;51.146;17.120;2024-03-02T07:13:38;62.63;;;61.25;;
66371;SDS011;53168;51.146;17.120;2024-03-02T07:16:15;59.30;;;57.26;;
66371;SDS011;53168;51.146;17.120;2024-03-02T07:19:00;64.54;;;62.96;;
66371;SDS011;53168;51.146;17.120;2024-03-02T07:21:36;65.25;;;62.96;;
66371;SDS011;53168;51.146;17.120;2024-03-02T07:24:12;62.47;;;60.39;;
66371;SDS011;53168;51.146;17.120;2024-03-02T07:26:46;62.98;;;61.09;;
66371;SDS011;53168;51.146;17.120;2024-03-02T07:29:23;56.84;;;54.74;;
66371;SDS011;53168;51.146;17.120;2024-03-02T07:31:58;61.75;;;60.01;;
66371;SDS011;53168;51.146;17.120;2024-03-02T07:34:33;62.22;;;60.51;;
66371;SDS011;53168;51.146;17.120;2024-03-02T07:37:12;64.44;;;62.40;;
66371;SDS011;53168;51.146;17.120;2024-03-02T07:39:46;63.91;;;61.69;;
66371;SDS011;53168;51.146;17.120;2024-03-02T07:42:24;62.37;;;60.82;;
66371;SDS011;53168;51.146;17.120;2024-03-02T07:45:00;59.73;;;57.73;;
66371;SDS011;53168;51.146;17.120;2024-03-02T07:47:38;60.47;;;58.98;;
66371;SDS011;53168;51.146;17.120;2024-03-02T07:50:14;57.02;;;55.88;;
66371;SDS011;53168;51.146;17.120;2024-03-02T07:52:49;56.14;;;54.70;;
66371;SDS011;53168;51.146;17.120;2024-03-02T07:55:23;58.04;;;56.38;;
66371;SDS011;53168;51.146;17.120;2024-03-02T07:57:58;61.22;;;59.47;;
66371;SDS011;53168;51.146;17.120;2024-03-02T08:00:36;55.21;;;53.97;;
66371;SDS011;53168;51.146;17.120;2024-03-02T08:03:11;52.94;;;52.12;;
66371;SDS011;53168;51.146;17.120;2024-03-02T08:05:48;53.24;;;51.84;;
66371;SDS011;53168;51.146;17.120;2024-03-02T08:08:23;45.51;;;44.34;;
66371;SDS011;53168;51.146;17.120;2024-03-02T08:10:58;51.63;;;50.18;;
66371;SDS011;53168;51.146;17.120;2024-03-02T08:13:33;49.39;;;48.28;;
66371;SDS011;53168;51.146;17.120;2024-03-02T08:16:11;50.54;;;49.18;;
66371;SDS011;53168;51.146;17.120;2024-03-02T08:18:53;50.30;;;49.16;;
66371;SDS011;53168;51.146;17.120;2024-03-02T08:21:28;54.39;;;52.98;;
66371;SDS011;53168;51.146;17.120;2024-03-02T08:24:06;48.50;;;47.45;;
66371;SDS011;53168;51.146;17.120;2024-03-02T08:26:43;43.33;;;42.40;;
66371;SDS011;53168;51.146;17.120;2024-03-02T08:29:18;51.53;;;50.03;;
66371;SDS011;53168;51.146;17.120;2024-03-02T08:31:54;53.43;;;52.44;;
66371;SDS011;53168;51.146;17.120;2024-03-02T08:34:30;44.36;;;43.61;;
66371;SDS011;53168;51.146;17.120;2024-03-02T08:37:07;52.98;;;51.89;;
66371;SDS011;53168;51.146;17.120;2024-03-02T08:39:46;41.67;;;41.03;;
66371;SDS011;53168;51.146;17.120;2024-03-02T08:42:23;42.10;;;41.44;;
66371;SDS011;53168;51.146;17.120;2024-03-02T08:44:58;40.87;;;39.73;;
66371;SDS011;53168;51.146;17.120;2024-03-02T08:47:35;45.94;;;45.32;;
66371;SDS011;53168;51.146;17.120;2024-03-02T08:50:12;43.09;;;42.61;;
66371;SDS011;53168;51.146;17.120;2024-03-02T08:52:50;46.08;;;45.48;;
66371;SDS011;53168;51.146;17.120;2024-03-02T08:55:26;47.76;;;46.90;;
66371;SDS011;53168;51.146;17.120;2024-03-02T08:58:02;43.64;;;43.14;;
66371;SDS011;53168;51.146;17.120;2024-03-02T09:00:43;41.86;;;40.71;;
66371;SDS011;53168;51.146;17.120;2024-03-02T09:03:19;42.91;;;42.21;;
66371;SDS011;53168;51.146;17.120;2024-03-02T09:06:08;39.09;;;38.18;;
66371;SDS011;53168;51.146;17.120;2024-03-02T09:09:20;44.53;;;43.56;;
66371;SDS011;53168;51.146;17.120;2024-03-02T09:12:59;40.18;;;39.57;;
66371;SDS011;53168;51.146;17.120;2024-03-02T09:15:35;38.84;;;38.09;;
66371;SDS011;53168;51.146;17.120;2024-03-02T09:18:10;40.25;;;39.74;;
66371;SDS011;53168;51.146;17.120;2024-03-02T09:20:45;42.75;;;41.96;;
66371;SDS011;53168;51.146;17.120;2024-03-02T09:23:20;35.03;;;34.49;;
66371;SDS011;53168;51.146;17.120;2024-03-02T09:25:56;33.86;;;33.26;;
66371;SDS011;53168;51.146;17.120;2024-03-02T09:28:31;35.10;;;34.41;;
66371;SDS011;53168;51.146;17.120;2024-03-02T09:31:11;34.39;;;33.99;;
66371;SDS011;53168;51.146;17.120;2024-03-02T09:33:47;33.80;;;33.00;;
66371;SDS011;53168;51.146;17.120;2024-03-02T09:36:25;31.27;;;30.83;;
66371;SDS011;53168;51.146;17.120;2024-03-02T09:39:03;28.30;;;27.89;;
66371;SDS011;53168;51.146;17.120;2024-03-02T09:41:44;34.44;;;34.24;;
66371;SDS011;53168;51.146;17.120;2024-03-02T09:44:29;34.77;;;33.95;;
66371;SDS011;53168;51.146;17.120;2024-03-02T09:47:06;36.83;;;36.18;;
66371;SDS011;53168;51.146;17.120;2024-03-02T09:49:44;36.54;;;35.94;;
66371;SDS011;53168;51.146;17.120;2024-03-02T09:52:20;32.32;;;31.86;;
66371;SDS011;53168;51.146;17.120;2024-03-02T09:54:57;36.29;;;36.06;;
66371;SDS011;53168;51.146;17.120;2024-03-02T09:57:32;29.93;;;29.55;;
66371;SDS011;53168;51.146;17.120;2024-03-02T10:00:11;33.94;;;33.53;;
66371;SDS011;53168;51.146;17.120;2024-03-02T10:02:48;31.51;;;31.11;;
66371;SDS011;53168;51.146;17.120;2024-03-02T10:05:26;27.79;;;27.39;;
66371;SDS011;53168;51.146;17.120;2024-03-02T10:08:02;29.41;;;29.19;;
66371;SDS011;53168;51.146;17.120;2024-03-02T10:10:38;29.58;;;29.13;;
66371;SDS011;53168;51.146;17.120;2024-03-02T10:13:14;29.71;;;29.15;;
66371;SDS011;53168;51.146;17.120;2024-03-02T10:15:49;33.31;;;32.93;;
66371;SDS011;53168;51.146;17.120;2024-03-02T10:18:27;30.64;;;30.09;;
66371;SDS011;53168;51.146;17.120;2024-03-02T10:24:26;28.65;;;28.48;;
66371;SDS011;53168;51.146;17.120;2024-03-02T10:27:18;31.22;;;30.73;;
66371;SDS011;53168;51.146;17.120;2024-03-02T10:30:07;31.12;;;30.99;;
66371;SDS011;53168;51.146;17.120;2024-03-02T10:32:47;32.21;;;31.92;;
66371;SDS011;53168;51.146;17.120;2024-03-02T10:35:24;33.24;;;32.82;;
66371;SDS011;53168;51.146;17.120;2024-03-02T10:38:01;31.51;;;31.35;;
66371;SDS011;53168;51.146;17.120;2024-03-02T10:40:41;31.51;;;31.09;;
66371;SDS011;53168;51.146;17.120;2024-03-02T10:43:22;31.46;;;31.03;;
66371;SDS011;53168;51.146;17.120;2024-03-02T10:57:14;31.36;;;31.10;;
66371;SDS011;53168;51.146;17.120;2024-03-02T11:00:25;25.53;;;25.29;;
66371;SDS011;53168;51.146;17.120;2024-03-02T11:03:05;27.57;;;27.31;;
66371;SDS011;53168;51.146;17.120;2024-03-02T11:05:44;23.33;;;23.17;;
66371;SDS011;53168;51.146;17.120;2024-03-02T11:08:20;23.60;;;23.54;;
66371;SDS011;53168;51.146;17.120;2024-03-02T11:11:06;27.30;;;27.06;;
66371;SDS011;53168;51.146;17.120;2024-03-02T11:13:50;26.39;;;26.13;;
66371;SDS011;53168;51.146;17.120;2024-03-02T11:16:31;24.33;;;24.08;;
66371;SDS011;53168;51.146;17.120;2024-03-02T11:19:11;29.45;;;29.09;;
66371;SDS011;53168;51.146;17.120;2024-03-02T11:21:49;26.64;;;26.29;;
66371;SDS011;53168;51.146;17.120;2024-03-02T11:24:30;24.22;;;23.98;;
66371;SDS011;53168;51.146;17.120;2024-03-02T11:27:08;27.70;;;27.37;;
66371;SDS011;53168;51.146;17.120;2024-03-02T11:29:54;31.29;;;31.10;;
66371;SDS011;53168;51.146;17.120;2024-03-02T11:32:29;27.62;;;27.28;;
66371;SDS011;53168;51.146;17.120;2024-03-02T11:35:04;28.31;;;28.01;;
66371;SDS011;53168;51.146;17.120;2024-03-02T11:37:39;27.45;;;27.23;;
66371;SDS011;53168;51.146;17.120;2024-03-02T11:40:26;27.71;;;27.44;;
66371;SDS011;53168;51.146;17.120;2024-03-02T11:43:03;26.50;;;26.24;;
66371;SDS011;53168;51.146;17.120;2024-03-02T11:45:48;26.87;;;26.42;;
66371;SDS011;53168;51.146;17.120;2024-03-02T11:48:38;25.09;;;24.99;;
66371;SDS011;53168;51.146;17.120;2024-03-02T11:51:24;27.49;;;27.10;;
66371;SDS011;53168;51.146;17.120;2024-03-02T11:54:00;28.28;;;27.85;;
66371;SDS011;53168;51.146;17.120;2024-03-02T11:56:37;26.74;;;26.43;;
66371;SDS011;53168;51.146;17.120;2024-03-02T11:59:17;24.31;;;24.05;;
66371;SDS011;53168;51.146;17.120;2024-03-02T12:01:56;21.83;;;21.70;;
66371;SDS011;53168;51.146;17.120;2024-03-02T12:04:32;24.72;;;24.27;;
66371;SDS011;53168;51.146;17.120;2024-03-02T12:07:13;26.85;;;26.48;;
66371;SDS011;53168;51.146;17.120;2024-03-02T12:10:00;28.08;;;27.40;;
66371;SDS011;53168;51.146;17.120;2024-03-02T12:25:47;18.92;;;18.53;;
66371;SDS011;53168;51.146;17.120;2024-03-02T12:28:26;22.00;;;21.79;;
66371;SDS011;53168;51.146;17.120;2024-03-02T12:31:04;22.74;;;22.64;;
66371;SDS011;53168;51.146;17.120;2024-03-02T12:33:39;20.93;;;20.88;;
66371;SDS011;53168;51.146;17.120;2024-03-02T12:36:17;21.82;;;21.65;;
66371;SDS011;53168;51.146;17.120;2024-03-02T12:38:54;20.70;;;20.50;;
66371;SDS011;53168;51.146;17.120;2024-03-02T12:41:29;24.34;;;24.08;;
66371;SDS011;53168;51.146;17.120;2024-03-02T13:05:48;18.10;;;18.09;;
66371;SDS011;53168;51.146;17.120;2024-03-02T13:08:21;22.04;;;21.99;;
66371;SDS011;53168;51.146;17.120;2024-03-02T13:10:52;23.39;;;23.13;;
66371;SDS011;53168;51.146;17.120;2024-03-02T13:13:24;24.09;;;23.87;;
66371;SDS011;53168;51.146;17.120;2024-03-02T13:15:59;24.18;;;24.11;;
66371;SDS011;53168;51.146;17.120;2024-03-02T13:18:34;24.46;;;24.22;;
66371;SDS011;53168;51.146;17.120;2024-03-02T13:21:07;22.59;;;22.44;;
66371;SDS011;53168;51.146;17.120;2024-03-02T13:23:38;22.70;;;22.63;;
66371;SDS011;53168;51.146;17.120;2024-03-02T13:26:09;20.18;;;20.12;;
66371;SDS011;53168;51.146;17.120;2024-03-02T13:28:40;17.64;;;17.55;;
66371;SDS011;53168;51.146;17.120;2024-03-02T13:31:12;17.41;;;17.41;;
66371;SDS011;53168;51.146;17.120;2024-03-02T13:33:43;18.27;;;18.27;;
66371;SDS011;53168;51.146;17.120;2024-03-02T13:36:14;17.81;;;17.81;;
66371;SDS011;53168;51.146;17.120;2024-03-02T13:38:47;17.62;;;17.55;;
66371;SDS011;53168;51.146;17.120;2024-03-02T13:41:21;16.89;;;16.76;;
66371;SDS011;53168;51.146;17.120;2024-03-02T13:43:52;22.49;;;22.26;;
66371;SDS011;53168;51.146;17.120;2024-03-02T13:46:23;21.98;;;21.84;;
66371;SDS011;53168;51.146;17.120;2024-03-02T13:48:54;20.66;;;20.56;;
66371;SDS011;53168;51.146;17.120;2024-03-02T13:51:25;20.65;;;20.54;;
66371;SDS011;53168;51.146;17.120;2024-03-02T13:53:57;22.83;;;22.76;;
66371;SDS011;53168;51.146;17.120;2024-03-02T13:56:28;19.48;;;19.32;;
66371;SDS011;53168;51.146;17.120;2024-03-02T13:59:01;19.69;;;19.50;;
66371;SDS011;53168;51.146;17.120;2024-03-02T14:01:33;19.02;;;19.00;;
66371;SDS011;53168;51.146;17.120;2024-03-02T14:04:04;21.15;;;21.08;;
66371;SDS011;53168;51.146;17.120;2024-03-02T14:06:35;22.21;;;22.03;;
66371;SDS011;53168;51.146;17.120;2024-03-02T14:09:07;19.72;;;19.59;;
66371;SDS011;53168;51.146;17.120;2024-03-02T14:11:39;20.11;;;19.99;;
66371;SDS011;53168;51.146;17.120;2024-03-02T14:14:10;18.90;;;18.69;;
66371;SDS011;53168;51.146;17.120;2024-03-02T14:16:41;19.10;;;19.05;;
66371;SDS011;53168;51.146;17.120;2024-03-02T14:19:12;21.72;;;21.42;;
66371;SDS011;53168;51.146;17.120;2024-03-02T14:21:43;19.93;;;19.79;;
66371;SDS011;53168;51.146;17.120;2024-03-02T14:24:15;21.83;;;21.64;;
66371;SDS011;53168;51.146;17.120;2024-03-02T14:26:46;17.00;;;16.89;;
66371;SDS011;53168;51.146;17.120;2024-03-02T14:29:21;20.42;;;20.34;;
66371;SDS011;53168;51.146;17.120;2024-03-02T14:31:52;20.09;;;19.87;;
66371;SDS011;53168;51.146;17.120;2024-03-02T14:34:23;22.72;;;22.54;;
66371;SDS011;53168;51.146;17.120;2024-03-02T14:36:53;21.97;;;21.88;;
66371;SDS011;53168;51.146;17.120;2024-03-02T14:39:25;23.07;;;22.81;;
66371;SDS011;53168;51.146;17.120;2024-03-02T14:41:56;23.69;;;23.46;;
66371;SDS011;53168;51.146;17.120;2024-03-02T14:44:26;25.91;;;25.66;;
66371;SDS011;53168;51.146;17.120;2024-03-02T14:46:57;27.04;;;26.73;;
66371;SDS011;53168;51.146;17.120;2024-03-02T14:49:30;28.22;;;27.91;;
66371;SDS011;53168;51.146;17.120;2024-03-02T14:52:01;28.67;;;28.20;;
66371;SDS011;53168;51.146;17.120;2024-03-02T14:54:33;21.94;;;21.73;;
66371;SDS011;53168;51.146;17.120;2024-03-02T14:57:04;24.76;;;24.51;;
66371;SDS011;53168;51.146;17.120;2024-03-02T14:59:35;29.84;;;29.61;;
66371;SDS011;53168;51.146;17.120;2024-03-02T15:02:06;29.86;;;29.53;;
66371;SDS011;53168;51.146;17.120;2024-03-02T15:04:38;29.09;;;28.76;;
66371;SDS011;53168;51.146;17.120;2024-03-02T15:07:08;28.73;;;28.63;;
66371;SDS011;53168;51.146;17.120;2024-03-02T15:09:39;27.44;;;27.27;;
66371;SDS011;53168;51.146;17.120;2024-03-02T15:12:10;25.05;;;24.70;;
66371;SDS011;53168;51.146;17.120;2024-03-02T15:14:42;26.23;;;26.01;;
66371;SDS011;53168;51.146;17.120;2024-03-02T15:17:15;23.82;;;23.67;;
66371;SDS011;53168;51.146;17.120;2024-03-02T15:19:46;24.53;;;24.24;;
66371;SDS011;53168;51.146;17.120;2024-03-02T15:22:18;26.39;;;25.94;;
66371;SDS011;53168;51.146;17.120;2024-03-02T15:24:48;24.95;;;24.59;;
66371;SDS011;53168;51.146;17.120;2024-03-02T15:27:20;24.28;;;23.97;;
66371;SDS011;53168;51.146;17.120;2024-03-02T15:29:51;22.87;;;22.62;;
66371;SDS011;53168;51.146;17.120;2024-03-02T15:32:23;25.30;;;25.07;;
66371;SDS011;53168;51.146;17.120;2024-03-02T15:34:54;25.81;;;25.46;;
66371;SDS011;53168;51.146;17.120;2024-03-02T15:37:25;25.71;;;25.43;;
66371;SDS011;53168;51.146;17.120;2024-03-02T15:39:56;25.20;;;24.90;;
66371;SDS011;53168;51.146;17.120;2024-03-02T15:42:33;25.55;;;25.31;;
66371;SDS011;53168;51.146;17.120;2024-03-02T15:45:05;24.54;;;24.29;;
66371;SDS011;53168;51.146;17.120;2024-03-02T15:47:38;23.21;;;22.99;;
66371;SDS011;53168;51.146;17.120;2024-03-02T15:50:10;24.75;;;24.52;;
66371;SDS011;53168;51.146;17.120;2024-03-02T15:52:42;25.54;;;25.25;;
66371;SDS011;53168;51.146;17.120;2024-03-02T15:55:15;23.66;;;23.59;;
66371;SDS011;53168;51.146;17.120;2024-03-02T15:57:47;27.42;;;27.27;;
66371;SDS011;53168;51.146;17.120;2024-03-02T16:00:19;25.08;;;24.83;;
66371;SDS011;53168;51.146;17.120;2024-03-02T16:02:50;25.11;;;25.03;;
66371;SDS011;53168;51.146;17.120;2024-03-02T16:05:21;22.71;;;22.62;;
66371;SDS011;53168;51.146;17.120;2024-03-02T16:07:54;24.46;;;24.19;;
66371;SDS011;53168;51.146;17.120;2024-03-02T16:10:25;24.53;;;24.37;;
66371;SDS011;53168;51.146;17.120;2024-03-02T16:12:56;30.32;;;30.19;;
66371;SDS011;53168;51.146;17.120;2024-03-02T16:15:28;33.27;;;33.03;;
66371;SDS011;53168;51.146;17.120;2024-03-02T16:17:58;33.58;;;33.24;;
66371;SDS011;53168;51.146;17.120;2024-03-02T16:20:31;34.69;;;34.51;;